Syracuse, New York
Current Conditions -  °F | °C
As of 6:54 AM on Tuesday 21 Oct 2014 (Local Time) from KSYR Reporting Station
Drizzle Drizzle  
Wind Chill: 47°   Ceiling: 3200
Heat Index: 49°   Visibility: 8mi
Dew Point: 46°   Wind: 5mph
Humidity: 89%   Direction: 100°E
Pressure: 29.83"   Gusts: NA
Location:  43.05°N, 76.15°W
Report Text: KSYR 211054Z 10004KT 8SM -DZ BKN032 OVC055 09/08 A2983 RMK SLP099 T00940077
Loading
Personal Weather Stations






























Interactive Weather Map
Tropical Storm Tracking
New forecast layout! Learn more

10-Day Weather Forecast

Advertisements
Track Severe Weather on mobile